Details From EDDF - Frankfurt Am Main
To LXGB - Gibraltar
Flight Number -
Tags Generated
Created
Modified
Stats Distance 1,034 nm / 1,914 km
Max Altitude 0 ft / 0 m
Waypoints 6
Social Downloads 0
Likes 0
Share VATSIM

Download

Looking for another format? Having issues loading an existing format? Contact us
Advertisement - Login to hide

Notes

Generated

Route

EDDF DETUN TALOL OBIBO BRIKE LXGB

ID Type Via Altitude Latitude Longitude Leg Dist Tot Dist Heading (true) Name
O EDDF APT - 0 ft / 0 m 50.02754˚ 8.53417˚ - 0 nm - -
DETUN FIX - 0 ft / 0 m 47.07139˚ 4.64778˚ 235 nm 235 nm 223° / 220° -
TALOL FIX - 0 ft / 0 m 43.32111˚ 0.55833˚ 283 nm 519 nm 219° / 216° -
OBIBO FIX - 0 ft / 0 m 39.67139˚ -2.79556˚ 266 nm 785 nm 216° / 213° -
BRIKE FIX - 0 ft / 0 m 36.50478˚ -5.41645˚ 226 nm 1012 nm 214° / 212° -
O LXGB APT - 0 ft / 0 m 36.15080˚ -5.35977˚ 21 nm 1033 nm 173° / 173° -

Altitude Profile

Advertisement - Login to hide

Weather


0- 5 10 15 20 25 30 35+ Temperature / ° C

Clouds and Precipitation
Forecast for 2017-12-11 18:00 UTC. Updated 21 minutes ago

Ground ~20,000 ft ~40,000 ft Winds

EDDF

Details ICAO EDDF (FRA)
Name Frankfurt am Main
Region Germany - Civil
Timezone Europe/Berlin (UTC+1.0)
Stats Elevation 355 ft / 108 m (AMSL)
Location 50.032604° 8.540641°
Runways 4
Magnetic Variation 2.341° E

METAR

EDDF 111520Z 15010KT 9999 FEW013 BKN085 09/06 Q0980 NOSIG

Decode

TAF

TAF AMD EDDF 111342Z 1113/1218 18012KT 9999 FEW008 BKN030 TEMPO 1113/1116 20015G25KT 4500 RA BKN008 BECMG 1116/1119 20015G25KT TEMPO 1123/1204 22015G35KT BECMG 1207/1209 23010KT

Decode

Departure Runways

ID Width Length Bearing (true) Bearing (mag) Surface Threshold Offset Overrun Length
07C 197 ft / 60 m 13,091 ft / 3,990 m 69.57° 67.23° Asphalt 0 ft / 0 m 230 ft / 70 m
07L 148 ft / 45 m 9,164 ft / 2,793 m 69.54° 67.20° Concrete 0 ft / 0 m 328 ft / 100 m
07R 148 ft / 45 m 13,094 ft / 3,991 m 69.57° 67.23° Asphalt 0 ft / 0 m 230 ft / 70 m
18 148 ft / 45 m 13,056 ft / 3,980 m 179.84° 177.50° Concrete 0 ft / 0 m 49 ft / 15 m
25C 197 ft / 60 m 13,091 ft / 3,990 m 249.61° 247.27° Asphalt 0 ft / 0 m 1,152 ft / 351 m
25L 148 ft / 45 m 13,094 ft / 3,991 m 249.61° 247.27° Asphalt 0 ft / 0 m 2,051 ft / 625 m
25R 148 ft / 45 m 9,164 ft / 2,793 m 249.57° 247.23° Concrete 0 ft / 0 m 328 ft / 100 m
36 148 ft / 45 m 13,056 ft / 3,980 m 359.84° 357.50° Concrete 0 ft / 0 m 190 ft / 58 m

LXGB

Details ICAO LXGB (GIB)
Name Gibraltar
Region Gibralter
Timezone Europe/Gibraltar (UTC+1.0)
Stats Elevation 15 ft / 5 m (AMSL)
Location 36.151209° -5.349664°
Runways 1
Magnetic Variation 1.124° W

METAR

LXGB 111450Z 27012KT 9999 FEW025 SCT200 14/07 Q1004 NOSIG

Decode

TAF

Not found

Destination Runways

ID Width Length Bearing (true) Bearing (mag) Surface Threshold Offset Overrun Length
27 151 ft / 46 m 5,992 ft / 1,826 m 267.56° 268.68° Asphalt 367 ft / 112 m 89 ft / 27 m
9 151 ft / 46 m 5,992 ft / 1,826 m 87.54° 88.66° Asphalt 299 ft / 91 m 52 ft / 16 m

Popular Alternatives